Time;durP1;ratioP1;P1;durP2;ratioP2;P2;SDS_P1;SDS_P2;PMS_P1;PMS_P2;Temp;Humidity;BMP_temperature;BMP_pressure;BME280_temperature;BME280_humidity;BME280_pressure;Samples;Min_cycle;Max_cycle;Signal;HPM_P1;HPM_P2
2023/06/25 00:00:27;;;;;;;1.55;1.23;;;23.20;50.70;;;;;;6269576;28;20029;-73
2023/06/25 00:03:28;;;;;;;1.30;1.08;;;23.30;50.70;;;;;;6269384;28;20048;-73
2023/06/25 00:06:28;;;;;;;1.25;1.05;;;23.30;50.70;;;;;;6269647;28;20064;-74
2023/06/25 00:09:29;;;;;;;1.35;1.08;;;23.20;50.60;;;;;;6269149;28;20028;-74
2023/06/25 00:12:29;;;;;;;4.43;1.25;;;23.20;50.60;;;;;;6271321;28;20033;-73
2023/06/25 00:15:30;;;;;;;1.23;1.10;;;23.30;50.70;;;;;;6274256;28;20047;-74
2023/06/25 00:18:33;;;;;;;1.33;0.90;;;23.20;50.70;;;;;;6274494;28;20039;-74
2023/06/25 00:21:34;;;;;;;1.33;1.08;;;23.30;50.70;;;;;;6274282;28;20472;-73
2023/06/25 00:24:34;;;;;;;1.65;1.10;;;23.20;50.60;;;;;;6274175;28;20021;-73
2023/06/25 00:27:35;;;;;;;1.10;1.00;;;23.30;50.60;;;;;;6274238;28;20066;-73
2023/06/25 00:30:36;;;;;;;1.10;1.00;;;23.30;50.60;;;;;;6274034;28;20079;-73
2023/06/25 00:33:38;;;;;;;1.00;0.93;;;23.20;50.50;;;;;;6274008;28;20029;-73
2023/06/25 00:36:40;;;;;;;1.13;1.00;;;23.20;50.50;;;;;;6274329;28;20033;-73
2023/06/25 00:39:40;;;;;;;1.42;1.02;;;23.20;50.50;;;;;;6273910;28;20699;-74
2023/06/25 00:42:42;;;;;;;1.38;1.10;;;23.30;50.50;;;;;;6273969;28;20021;-74
2023/06/25 00:45:44;;;;;;;1.80;0.90;;;23.30;50.50;;;;;;6267697;28;20585;-73
2023/06/25 00:48:48;;;;;;;1.70;1.20;;;23.30;50.50;;;;;;6273660;28;20029;-74
2023/06/25 00:51:48;;;;;;;0.88;0.80;;;23.20;50.40;;;;;;6273638;28;20025;-73
2023/06/25 00:54:49;;;;;;;1.10;0.93;;;23.20;50.30;;;;;;6270173;28;20033;-74
2023/06/25 00:57:51;;;;;;;1.10;0.90;;;23.30;50.40;;;;;;6273491;28;20037;-74
2023/06/25 01:00:56;;;;;;;1.58;1.10;;;23.30;50.40;;;;;;6273332;28;20056;-74
2023/06/25 01:04:06;;;;;;;0.95;0.80;;;23.20;50.30;;;;;;6273238;28;20024;-74
2023/06/25 01:07:16;;;;;;;1.17;1.08;;;23.30;50.40;;;;;;6273130;28;20041;-74
2023/06/25 01:10:17;;;;;;;1.65;0.90;;;23.20;50.30;;;;;;6269685;28;20061;-73
2023/06/25 01:13:18;;;;;;;1.35;1.00;;;23.30;50.40;;;;;;6273045;28;20029;-73
2023/06/25 01:16:18;;;;;;;1.52;1.17;;;23.30;50.30;;;;;;6273051;28;20021;-73
2023/06/25 01:19:19;;;;;;;1.25;1.02;;;23.20;50.20;;;;;;6269647;28;20021;-74
2023/06/25 01:22:31;;;;;;;1.67;1.15;;;23.30;50.20;;;;;;6273090;28;20021;-73
2023/06/25 01:25:32;;;;;;;1.13;0.90;;;23.30;50.20;;;;;;6272629;28;20052;-73
2023/06/25 01:28:32;;;;;;;0.98;0.98;;;23.20;50.20;;;;;;6272902;28;20487;-73
2023/06/25 01:31:33;;;;;;;0.95;0.88;;;23.30;50.20;;;;;;6272760;28;20063;-73
2023/06/25 01:34:33;;;;;;;1.13;1.00;;;23.30;50.30;;;;;;6272578;28;20041;-73
2023/06/25 01:37:34;;;;;;;1.27;1.10;;;23.30;50.20;;;;;;6272756;28;20098;-74
2023/06/25 01:40:34;;;;;;;1.70;1.20;;;23.30;50.20;;;;;;6272556;28;20033;-73
2023/06/25 01:43:35;;;;;;;0.75;0.75;;;23.20;50.10;;;;;;6272610;28;20033;-74
2023/06/25 01:46:36;;;;;;;1.00;0.90;;;23.30;50.20;;;;;;6272359;28;20067;-74
2023/06/25 01:49:36;;;;;;;1.05;0.90;;;23.20;50.00;;;;;;6272326;28;20017;-74
2023/06/25 01:52:38;;;;;;;1.08;0.80;;;23.30;50.80;;;;;;6271806;28;20399;-74
2023/06/25 01:55:39;;;;;;;1.40;1.00;;;23.30;50.10;;;;;;6266072;28;20028;-74
2023/06/25 01:58:40;;;;;;;1.10;1.00;;;23.30;50.10;;;;;;6272200;28;20028;-74
2023/06/25 02:01:40;;;;;;;1.42;1.00;;;23.20;50.00;;;;;;6271912;28;20013;-74
2023/06/25 02:04:41;;;;;;;0.95;0.85;;;23.30;50.10;;;;;;6271741;28;20017;-74
2023/06/25 02:07:42;;;;;;;1.50;1.08;;;23.30;50.10;;;;;;6271621;28;20074;-74
2023/06/25 02:10:43;;;;;;;1.00;0.90;;;23.30;50.00;;;;;;6265147;28;20513;-73
2023/06/25 02:13:44;;;;;;;1.10;0.95;;;23.30;50.00;;;;;;6253600;28;20033;-74
2023/06/25 02:16:45;;;;;;;1.00;0.90;;;23.30;50.00;;;;;;6271442;28;20029;-73
2023/06/25 02:19:46;;;;;;;1.48;1.08;;;23.30;49.90;;;;;;6271933;28;20021;-74
2023/06/25 02:22:48;;;;;;;1.95;1.25;;;23.30;50.00;;;;;;6266788;28;20025;-74
2023/06/25 02:25:50;;;;;;;0.80;0.77;;;23.20;49.80;;;;;;6270862;28;20108;-73
2023/06/25 02:28:50;;;;;;;1.35;1.10;;;23.30;50.00;;;;;;6271423;28;20036;-75
2023/06/25 02:31:51;;;;;;;1.40;1.10;;;23.30;50.00;;;;;;6270812;28;20049;-74
2023/06/25 02:34:51;;;;;;;1.58;1.13;;;23.20;49.80;;;;;;6267470;28;20057;-74
2023/06/25 02:37:52;;;;;;;1.42;1.20;;;23.20;49.70;;;;;;6271254;28;20090;-74
2023/06/25 02:40:53;;;;;;;1.42;0.98;;;23.20;49.80;;;;;;6271138;28;20101;-73
2023/06/25 02:43:53;;;;;;;1.10;1.00;;;23.20;49.70;;;;;;6271178;28;20100;-74
2023/06/25 02:46:54;;;;;;;1.08;0.98;;;23.30;49.90;;;;;;6271078;28;20104;-74
2023/06/25 02:49:54;;;;;;;1.33;1.02;;;23.20;49.90;;;;;;6266308;28;20024;-73
2023/06/25 02:52:55;;;;;;;1.00;0.80;;;23.20;49.70;;;;;;6270620;28;20059;-74
2023/06/25 02:55:56;;;;;;;1.52;1.05;;;23.20;49.80;;;;;;6270879;28;20017;-74
2023/06/25 02:58:56;;;;;;;1.45;1.00;;;23.20;49.60;;;;;;6270727;28;20017;-73
2023/06/25 03:01:57;;;;;;;1.30;1.10;;;23.30;49.80;;;;;;6270719;28;20108;-74
2023/06/25 03:04:57;;;;;;;1.00;0.82;;;23.30;49.70;;;;;;6270658;28;20499;-73
2023/06/25 03:08:01;;;;;;;1.00;0.90;;;23.30;49.80;;;;;;6270481;28;20024;-74
2023/06/25 03:11:02;;;;;;;1.25;0.90;;;23.30;49.70;;;;;;6269942;28;20029;-74
2023/06/25 03:14:02;;;;;;;1.42;0.93;;;23.30;49.70;;;;;;6270390;28;20463;-73
2023/06/25 03:17:04;;;;;;;1.45;1.13;;;23.30;49.70;;;;;;6270032;28;20493;-73
2023/06/25 03:20:05;;;;;;;1.52;0.90;;;23.30;49.60;;;;;;6270254;28;20021;-73
2023/06/25 03:23:06;;;;;;;1.00;0.90;;;23.30;49.60;;;;;;6270380;28;20052;-73
2023/06/25 03:26:06;;;;;;;0.70;0.60;;;23.30;49.70;;;;;;6270122;28;20029;-74
2023/06/25 03:29:07;;;;;;;1.20;1.10;;;23.30;49.60;;;;;;6269817;28;20021;-74
2023/06/25 03:32:08;;;;;;;1.25;1.10;;;23.30;49.50;;;;;;6269867;28;20029;-73
2023/06/25 03:35:09;;;;;;;1.00;0.90;;;23.30;49.50;;;;;;6270327;28;20045;-73
2023/06/25 03:38:10;;;;;;;1.27;1.02;;;23.30;49.50;;;;;;6269723;28;20471;-73
2023/06/25 03:41:11;;;;;;;0.80;0.80;;;23.30;49.60;;;;;;6269624;28;20379;-74
2023/06/25 03:44:12;;;;;;;1.27;1.10;;;23.30;49.50;;;;;;6269300;28;20064;-73
2023/06/25 03:47:12;;;;;;;1.25;1.05;;;23.30;49.50;;;;;;6268608;28;20025;-74
2023/06/25 03:50:13;;;;;;;1.13;1.00;;;23.30;49.40;;;;;;6264452;28;20017;-74
2023/06/25 03:53:13;;;;;;;1.05;0.95;;;23.30;49.30;;;;;;6269307;28;20029;-74
2023/06/25 03:56:14;;;;;;;1.00;0.90;;;23.30;49.50;;;;;;6266267;28;20465;-74
2023/06/25 04:03:12;;;;;;;1.10;0.95;;;23.30;49.40;;;;;;6269580;28;20032;-74
2023/06/25 04:06:12;;;;;;;1.67;1.10;;;23.30;49.40;;;;;;6251561;28;20051;-74
2023/06/25 04:09:13;;;;;;;1.35;1.10;;;23.30;49.50;;;;;;6269411;28;20055;-74
2023/06/25 04:12:13;;;;;;;1.45;1.02;;;23.30;49.50;;;;;;6268947;28;20108;-74
2023/06/25 04:15:14;;;;;;;1.13;1.00;;;23.30;49.40;;;;;;6251560;28;20025;-74
2023/06/25 04:18:15;;;;;;;1.20;1.10;;;23.30;49.40;;;;;;6268828;28;20026;-73
2023/06/25 04:21:15;;;;;;;1.10;1.00;;;23.30;49.40;;;;;;6268771;28;20155;-73
2023/06/25 04:24:16;;;;;;;1.00;0.90;;;23.30;49.40;;;;;;6268879;28;20028;-74
2023/06/25 04:27:18;;;;;;;1.08;0.98;;;23.30;49.30;;;;;;6269153;28;20025;-74
2023/06/25 04:30:19;;;;;;;1.75;1.25;;;23.30;49.30;;;;;;6268750;28;20041;-74
2023/06/25 04:33:20;;;;;;;1.50;1.05;;;23.30;49.40;;;;;;6268821;28;20040;-73
2023/06/25 04:36:20;;;;;;;1.40;1.08;;;23.30;49.30;;;;;;6269038;28;20033;-74
2023/06/25 04:39:21;;;;;;;1.23;1.10;;;23.30;49.30;;;;;;6268775;28;20061;-74
2023/06/25 04:42:22;;;;;;;1.52;1.20;;;23.30;49.20;;;;;;6262395;28;20017;-74
2023/06/25 04:45:22;;;;;;;1.10;1.00;;;23.30;49.20;;;;;;6265671;28;20061;-74
2023/06/25 04:48:23;;;;;;;2.55;1.20;;;23.30;49.20;;;;;;6268562;28;20025;-74
2023/06/25 04:51:23;;;;;;;1.50;1.10;;;23.30;49.20;;;;;;6268709;28;20483;-73
2023/06/25 04:54:24;;;;;;;1.25;1.15;;;23.30;49.20;;;;;;6268342;28;20078;-74
2023/06/25 04:57:25;;;;;;;1.33;1.13;;;23.30;49.20;;;;;;6265410;28;20028;-74
2023/06/25 05:00:25;;;;;;;1.40;1.05;;;23.30;49.20;;;;;;6273464;28;20028;-73
2023/06/25 05:03:26;;;;;;;1.35;1.10;;;23.30;49.20;;;;;;6260047;28;20033;-73
2023/06/25 05:06:26;;;;;;;1.25;1.10;;;23.30;49.10;;;;;;6273425;28;20546;-74
2023/06/25 05:09:27;;;;;;;1.15;1.05;;;23.30;49.10;;;;;;6272908;28;20031;-74
2023/06/25 05:12:28;;;;;;;1.60;1.15;;;23.30;49.10;;;;;;6272682;28;20036;-74
2023/06/25 05:15:28;;;;;;;1.00;0.90;;;23.30;49.00;;;;;;6273095;28;20100;-75
2023/06/25 05:18:29;;;;;;;1.20;1.10;;;23.30;49.10;;;;;;6272743;28;20045;-74
2023/06/25 05:21:29;;;;;;;1.42;1.10;;;23.30;49.10;;;;;;6272717;28;20021;-75
2023/06/25 05:24:30;;;;;;;1.50;1.30;;;23.30;48.90;;;;;;6272753;28;20039;-73
2023/06/25 05:27:31;;;;;;;1.55;1.00;;;23.30;49.00;;;;;;6272640;28;20104;-74
2023/06/25 05:30:31;;;;;;;1.25;1.00;;;23.30;49.00;;;;;;6272549;28;20049;-74
2023/06/25 05:33:32;;;;;;;1.23;1.00;;;23.30;48.90;;;;;;6272260;28;20037;-74
2023/06/25 05:36:33;;;;;;;1.20;0.90;;;23.30;49.00;;;;;;6272770;28;20096;-74
2023/06/25 05:39:34;;;;;;;0.80;0.80;;;23.30;49.00;;;;;;6268917;28;20025;-74
2023/06/25 05:42:34;;;;;;;1.35;1.20;;;23.30;48.90;;;;;;6272233;28;20161;-74
2023/06/25 05:45:35;;;;;;;1.10;1.00;;;23.30;48.80;;;;;;6272293;28;20063;-73
2023/06/25 05:48:35;;;;;;;1.50;1.10;;;23.30;48.80;;;;;;6267440;28;20052;-74
2023/06/25 05:51:36;;;;;;;1.10;1.00;;;23.30;48.90;;;;;;6269009;28;20044;-74
2023/06/25 05:54:37;;;;;;;1.70;1.33;;;23.30;48.80;;;;;;6271838;28;20463;-74
2023/06/25 05:57:37;;;;;;;1.13;1.00;;;23.40;48.90;;;;;;6272085;28;20107;-74
2023/06/25 06:00:38;;;;;;;1.15;0.93;;;23.30;48.80;;;;;;6271972;28;20059;-74
2023/06/25 06:03:39;;;;;;;1.55;0.95;;;23.30;48.80;;;;;;6271612;28;20021;-74
2023/06/25 06:06:39;;;;;;;0.90;0.75;;;23.30;48.70;;;;;;6268793;28;20021;-74
2023/06/25 06:09:40;;;;;;;1.35;1.08;;;23.40;48.80;;;;;;6270606;28;20021;-75
2023/06/25 06:12:41;;;;;;;1.92;0.88;;;23.40;48.80;;;;;;6271728;28;20045;-74
2023/06/25 06:15:42;;;;;;;0.85;0.80;;;23.40;48.80;;;;;;6271424;28;20017;-74
2023/06/25 06:18:42;;;;;;;1.13;0.95;;;23.40;48.70;;;;;;6271267;28;20017;-74
2023/06/25 06:21:43;;;;;;;0.90;0.77;;;23.30;48.70;;;;;;6271598;28;20055;-74
2023/06/25 06:24:43;;;;;;;1.10;0.90;;;23.40;48.70;;;;;;6271336;28;20045;-74
2023/06/25 06:27:44;;;;;;;1.50;0.80;;;23.30;48.70;;;;;;6271316;28;20029;-74
2023/06/25 06:30:45;;;;;;;0.93;0.80;;;23.30;49.10;;;;;;6271278;28;20132;-75
2023/06/25 06:33:45;;;;;;;1.38;1.10;;;23.20;50.20;;;;;;6270881;28;20515;-74
2023/06/25 06:36:46;;;;;;;1.60;0.95;;;23.10;50.70;;;;;;6268056;28;20083;-74
2023/06/25 06:39:47;;;;;;;0.70;0.70;;;23.00;51.80;;;;;;6270546;28;20384;-74
2023/06/25 06:42:47;;;;;;;1.15;0.90;;;22.90;51.70;;;;;;6271120;28;20029;-73
2023/06/25 06:45:48;;;;;;;1.35;0.98;;;22.90;52.10;;;;;;6270380;28;20546;-74
2023/06/25 06:48:48;;;;;;;1.13;0.90;;;22.90;52.20;;;;;;6270529;28;20078;-74
2023/06/25 06:51:49;;;;;;;0.98;0.90;;;22.90;52.40;;;;;;6270215;28;20060;-74
2023/06/25 06:54:50;;;;;;;0.90;0.80;;;22.80;52.50;;;;;;6269367;28;20033;-73
2023/06/25 06:57:50;;;;;;;1.23;0.98;;;22.80;52.60;;;;;;6269213;28;20056;-74
2023/06/25 07:00:51;;;;;;;1.08;0.70;;;22.70;52.80;;;;;;6264734;28;20028;-74
2023/06/25 07:03:51;;;;;;;1.70;1.00;;;22.70;52.80;;;;;;6269181;28;20060;-74
2023/06/25 07:06:52;;;;;;;0.80;0.80;;;22.80;53.00;;;;;;6270644;28;20082;-74
2023/06/25 07:09:56;;;;;;;1.17;0.90;;;22.80;53.20;;;;;;6270063;28;20021;-73
2023/06/25 07:12:56;;;;;;;1.95;1.10;;;22.80;53.10;;;;;;6267305;28;20036;-74
2023/06/25 07:15:57;;;;;;;1.05;0.95;;;22.80;53.20;;;;;;6269783;28;20056;-74
2023/06/25 07:18:57;;;;;;;0.85;0.77;;;22.70;53.30;;;;;;6269811;28;20044;-74
2023/06/25 07:21:58;;;;;;;0.90;0.77;;;22.70;53.30;;;;;;6269826;28;20060;-73
2023/06/25 07:25:00;;;;;;;1.33;1.00;;;22.70;53.40;;;;;;6269863;28;20013;-74
2023/06/25 07:28:00;;;;;;;1.10;0.95;;;22.70;53.50;;;;;;6269803;28;20099;-73
2023/06/25 07:31:01;;;;;;;1.15;0.85;;;22.70;53.50;;;;;;6264824;28;20105;-73
2023/06/25 07:34:02;;;;;;;0.75;0.70;;;22.70;53.70;;;;;;6269455;28;20033;-75
2023/06/25 07:37:02;;;;;;;1.00;0.90;;;22.70;53.70;;;;;;6269338;28;20478;-75
2023/06/25 07:40:03;;;;;;;0.75;0.75;;;22.60;53.60;;;;;;6269529;28;20040;-74
2023/06/25 07:43:04;;;;;;;1.08;0.77;;;22.70;53.70;;;;;;6269818;28;20492;-73
2023/06/25 07:46:05;;;;;;;0.80;0.70;;;22.60;53.60;;;;;;6269122;28;20082;-74
2023/06/25 07:49:05;;;;;;;1.20;0.82;;;22.60;53.70;;;;;;6269377;28;20060;-74
2023/06/25 07:52:06;;;;;;;1.35;0.82;;;22.60;54.00;;;;;;6269355;28;20467;-74
2023/06/25 07:55:07;;;;;;;1.10;0.77;;;22.60;54.00;;;;;;6269111;28;20048;-73
2023/06/25 07:58:08;;;;;;;0.63;0.63;;;22.60;54.00;;;;;;6265995;28;20032;-73
2023/06/25 08:01:08;;;;;;;0.50;0.50;;;22.60;54.00;;;;;;6268929;28;20035;-74
2023/06/25 08:04:09;;;;;;;1.25;0.80;;;22.60;54.10;;;;;;6266051;28;20029;-74
2023/06/25 08:07:10;;;;;;;1.00;0.70;;;22.60;54.10;;;;;;6269077;28;20098;-73
2023/06/25 08:10:10;;;;;;;0.55;0.55;;;22.60;54.20;;;;;;6264308;28;20029;-74
2023/06/25 08:13:11;;;;;;;0.77;0.75;;;22.60;54.20;;;;;;6269064;28;20033;-74
2023/06/25 08:16:12;;;;;;;0.82;0.77;;;22.60;54.30;;;;;;6268842;28;20029;-73
2023/06/25 08:19:12;;;;;;;0.77;0.73;;;22.60;54.30;;;;;;6268902;28;20140;-73
2023/06/25 08:22:13;;;;;;;0.63;0.60;;;22.60;54.20;;;;;;6268875;28;20100;-73
2023/06/25 08:25:21;;;;;;;0.75;0.75;;;22.60;54.40;;;;;;6268596;28;20032;-74
2023/06/25 08:28:22;;;;;;;1.35;0.70;;;22.60;54.50;;;;;;6269062;28;20422;-73
2023/06/25 08:31:22;;;;;;;0.65;0.57;;;22.60;54.60;;;;;;6268579;28;20076;-73
2023/06/25 08:34:23;;;;;;;0.60;0.60;;;22.60;54.40;;;;;;6254404;28;20531;-73
2023/06/25 08:37:23;;;;;;;0.80;0.80;;;22.60;54.60;;;;;;6274028;28;20037;-73
2023/06/25 08:40:26;;;;;;;0.70;0.70;;;22.60;54.60;;;;;;6273303;28;20032;-74
2023/06/25 08:43:27;;;;;;;1.05;0.90;;;22.60;54.60;;;;;;6273950;28;20024;-74
2023/06/25 08:46:28;;;;;;;0.80;0.60;;;22.60;54.70;;;;;;6273800;28;20052;-74
2023/06/25 08:49:30;;;;;;;1.30;0.80;;;22.60;54.70;;;;;;6273717;28;20028;-74
2023/06/25 08:52:32;;;;;;;1.08;0.80;;;22.50;55.40;;;;;;6273488;28;20472;-73
2023/06/25 08:55:34;;;;;;;0.60;0.50;;;22.60;54.80;;;;;;6273587;28;20543;-73
2023/06/25 08:58:36;;;;;;;1.05;0.70;;;22.50;54.70;;;;;;6273503;28;20033;-74
2023/06/25 09:01:36;;;;;;;0.95;0.85;;;22.50;54.70;;;;;;6273333;28;20074;-74
2023/06/25 09:04:37;;;;;;;0.70;0.70;;;22.50;54.80;;;;;;6273644;28;20476;-74
2023/06/25 09:07:45;;;;;;;1.05;0.82;;;22.50;54.90;;;;;;6273205;28;20032;-73
2023/06/25 09:10:50;;;;;;;0.63;0.60;;;22.50;54.90;;;;;;6273186;28;20115;-73
2023/06/25 09:13:55;;;;;;;0.98;0.85;;;22.50;55.00;;;;;;6272989;28;20037;-73
2023/06/25 09:16:56;;;;;;;1.27;0.90;;;22.50;54.90;;;;;;6273302;28;20025;-74
2023/06/25 09:20:03;;;;;;;0.68;0.60;;;22.50;55.00;;;;;;6273063;28;20021;-74
2023/06/25 09:23:05;;;;;;;0.85;0.65;;;22.50;55.00;;;;;;6272762;28;20033;-73
2023/06/25 09:26:09;;;;;;;0.95;0.80;;;22.50;55.10;;;;;;6272743;28;20496;-73
2023/06/25 09:29:10;;;;;;;0.75;0.65;;;22.50;55.10;;;;;;6240372;28;20025;-74
2023/06/25 09:32:11;;;;;;;0.82;0.70;;;22.50;55.10;;;;;;6267368;28;20029;-74
2023/06/25 09:35:17;;;;;;;1.13;0.80;;;22.50;55.10;;;;;;6268896;28;20170;-73
2023/06/25 09:38:17;;;;;;;1.00;0.80;;;22.50;55.20;;;;;;6250439;28;20116;-74
2023/06/25 09:41:21;;;;;;;0.65;0.63;;;22.50;55.20;;;;;;6268384;28;20074;-74
2023/06/25 09:44:22;;;;;;;1.10;0.70;;;22.50;55.30;;;;;;6267003;28;20037;-73
2023/06/25 09:47:23;;;;;;;0.70;0.63;;;22.50;55.10;;;;;;6268780;28;20454;-73
2023/06/25 09:50:27;;;;;;;0.55;0.55;;;22.50;55.40;;;;;;6263531;28;20419;-73
2023/06/25 09:53:31;;;;;;;0.80;0.75;;;22.50;55.20;;;;;;6264194;28;20044;-73
2023/06/25 09:56:34;;;;;;;1.17;0.80;;;22.50;56.00;;;;;;6272620;28;20029;-73
2023/06/25 09:59:36;;;;;;;1.10;0.80;;;22.50;55.60;;;;;;6246447;28;20017;-73
2023/06/25 10:02:37;;;;;;;0.85;0.80;;;22.50;55.60;;;;;;6269916;28;20021;-74
2023/06/25 10:05:38;;;;;;;0.65;0.65;;;22.50;55.60;;;;;;6268252;28;20079;-73
2023/06/25 10:08:38;;;;;;;2.05;0.80;;;22.50;55.60;;;;;;6269206;28;20056;-75
2023/06/25 10:11:52;;;;;;;1.00;0.70;;;22.50;55.60;;;;;;6267685;28;20565;-73
2023/06/25 10:14:54;;;;;;;1.10;0.80;;;22.50;55.60;;;;;;6268168;28;20463;-75
2023/06/25 10:17:58;;;;;;;0.68;0.63;;;22.50;55.60;;;;;;6268082;28;20032;-74
2023/06/25 10:21:01;;;;;;;0.57;0.57;;;22.50;55.60;;;;;;6267244;28;20029;-74
2023/06/25 10:24:03;;;;;;;0.95;0.68;;;22.50;55.70;;;;;;6242254;28;20492;-75
2023/06/25 10:27:04;;;;;;;0.60;0.60;;;22.50;55.70;;;;;;6259026;28;20021;-74
2023/06/25 10:30:13;;;;;;;1.02;0.80;;;22.50;55.70;;;;;;6241289;28;20053;-75
2023/06/25 10:33:17;;;;;;;1.15;0.68;;;22.50;56.50;;;;;;6251730;28;20049;-74
2023/06/25 10:36:24;;;;;;;0.50;0.50;;;22.40;55.70;;;;;;6267905;28;20037;-74
2023/06/25 10:39:35;;;;;;;0.60;0.52;;;22.40;55.70;;;;;;6263025;28;20408;-75
2023/06/25 10:42:36;;;;;;;0.90;0.80;;;22.50;55.80;;;;;;6267487;28;20021;-74
2023/06/25 10:45:37;;;;;;;0.75;0.70;;;22.40;55.70;;;;;;6267944;28;20495;-74
2023/06/25 10:48:45;;;;;;;0.80;0.73;;;22.40;55.70;;;;;;6267584;28;20017;-74
2023/06/25 10:51:47;;;;;;;0.73;0.73;;;22.40;55.80;;;;;;6267848;28;20100;-74
2023/06/25 10:54:47;;;;;;;0.70;0.65;;;22.40;55.70;;;;;;6267501;28;20083;-74
2023/06/25 10:57:48;;;;;;;0.75;0.70;;;22.40;55.80;;;;;;6266678;28;20500;-74
2023/06/25 11:00:54;;;;;;;0.85;0.70;;;22.40;55.80;;;;;;6267271;28;20025;-75
2023/06/25 11:03:55;;;;;;;0.85;0.70;;;22.40;55.90;;;;;;6267175;28;20086;-74
2023/06/25 11:06:55;;;;;;;0.88;0.73;;;22.40;55.90;;;;;;6267520;28;20428;-74
2023/06/25 11:09:58;;;;;;;0.50;0.50;;;22.40;55.90;;;;;;6262299;28;20514;-74
2023/06/25 11:12:59;;;;;;;0.63;0.60;;;22.40;56.00;;;;;;6266537;28;20400;-75
2023/06/25 11:15:59;;;;;;;0.60;0.60;;;22.40;55.90;;;;;;6266803;28;20036;-74
2023/06/25 11:19:00;;;;;;;0.50;0.50;;;22.40;56.00;;;;;;6259895;28;20025;-75
2023/06/25 11:22:05;;;;;;;0.60;0.60;;;22.40;56.00;;;;;;6262070;28;20040;-75
2023/06/25 11:25:06;;;;;;;;;;;22.40;56.10;;;;;;6261739;28;20245;-75
2023/06/25 11:28:14;;;;;;;0.63;0.63;;;22.40;56.10;;;;;;6267094;28;19909;-74
2023/06/25 11:31:14;;;;;;;0.70;0.60;;;22.40;56.00;;;;;;6242169;28;20053;-75
2023/06/25 11:34:22;;;;;;;0.70;0.68;;;22.40;56.00;;;;;;6256087;28;20037;-75
2023/06/25 11:37:23;;;;;;;0.50;0.50;;;22.40;56.10;;;;;;6239924;28;20107;-75
2023/06/25 11:40:34;;;;;;;0.90;0.80;;;22.40;56.10;;;;;;6253587;28;20052;-75
2023/06/25 11:43:35;;;;;;;0.75;0.60;;;22.40;56.10;;;;;;6262258;28;20342;-75
2023/06/25 11:46:35;;;;;;;0.90;0.63;;;22.40;56.20;;;;;;6262653;28;20025;-75
2023/06/25 11:49:37;;;;;;;0.60;0.60;;;22.40;56.20;;;;;;6266338;28;20507;-75
2023/06/25 11:52:39;;;;;;;0.75;0.75;;;22.40;56.20;;;;;;6265515;28;20127;-75
2023/06/25 11:55:40;;;;;;;0.70;0.60;;;22.40;56.20;;;;;;6267346;28;20113;-75
2023/06/25 11:58:40;;;;;;;0.80;0.63;;;22.40;56.20;;;;;;6265664;28;20475;-75
2023/06/25 12:01:41;;;;;;;1.08;0.80;;;22.40;56.30;;;;;;6266764;28;20084;-75
2023/06/25 12:04:41;;;;;;;1.85;0.60;;;22.40;56.10;;;;;;6265960;28;20017;-74
2023/06/25 12:07:42;;;;;;;0.65;0.65;;;22.40;56.00;;;;;;6265321;28;20068;-74
2023/06/25 12:10:43;;;;;;;0.90;0.80;;;22.50;56.10;;;;;;6266263;28;20387;-75
2023/06/25 12:13:43;;;;;;;0.75;0.65;;;22.50;56.20;;;;;;6265980;28;20112;-75
2023/06/25 12:16:44;;;;;;;0.95;0.60;;;22.50;56.20;;;;;;6266477;28;20100;-75
2023/06/25 12:19:44;;;;;;;0.80;0.70;;;22.40;56.20;;;;;;6265437;28;20099;-75
2023/06/25 12:22:45;;;;;;;0.63;0.63;;;22.40;56.30;;;;;;6262995;28;20037;-74
2023/06/25 12:25:46;;;;;;;0.73;0.60;;;22.40;56.30;;;;;;6248792;28;20539;-75
2023/06/25 12:28:48;;;;;;;0.70;0.70;;;22.40;56.40;;;;;;6264675;28;20021;-75
2023/06/25 12:31:48;;;;;;;1.48;0.70;;;22.40;56.30;;;;;;6265842;28;20487;-75
2023/06/25 12:34:49;;;;;;;0.68;0.60;;;22.40;56.40;;;;;;6265154;28;20033;-75
2023/06/25 12:37:49;;;;;;;0.93;0.70;;;22.40;56.40;;;;;;6265928;28;20127;-74
2023/06/25 12:40:56;;;;;;;0.80;0.60;;;22.40;56.80;;;;;;6247686;28;20029;-75
2023/06/25 12:43:57;;;;;;;1.20;0.85;;;22.50;56.50;;;;;;6265642;28;20541;-75
2023/06/25 12:46:58;;;;;;;0.70;0.60;;;22.50;56.40;;;;;;6265843;28;20021;-75
2023/06/25 12:49:58;;;;;;;0.68;0.63;;;22.50;56.40;;;;;;6265281;28;20024;-74
2023/06/25 12:52:59;;;;;;;0.95;0.85;;;22.50;56.30;;;;;;6262454;28;20104;-75
2023/06/25 12:55:59;;;;;;;0.80;0.80;;;22.50;56.30;;;;;;6237116;28;20033;-75
2023/06/25 12:59:00;;;;;;;2.38;0.57;;;22.50;56.30;;;;;;6238505;28;20029;-76
2023/06/25 13:02:00;;;;;;;3.58;0.75;;;22.50;56.30;;;;;;6266333;28;20127;-75
2023/06/25 13:05:01;;;;;;;0.65;0.65;;;22.50;56.20;;;;;;6265085;28;20070;-75
2023/06/25 13:08:02;;;;;;;1.17;0.63;;;22.60;56.10;;;;;;6266698;28;20032;-75
2023/06/25 13:11:02;;;;;;;1.30;0.60;;;22.70;56.40;;;;;;6264724;28;20107;-75
2023/06/25 13:14:03;;;;;;;0.90;0.80;;;22.60;56.50;;;;;;6266465;28;20112;-75
2023/06/25 13:17:04;;;;;;;1.90;0.90;;;22.60;56.60;;;;;;6265141;28;20033;-75
2023/06/25 13:20:05;;;;;;;0.73;0.73;;;22.60;56.70;;;;;;6264014;28;20025;-75
2023/06/25 13:23:06;;;;;;;0.80;0.70;;;22.60;56.50;;;;;;6253665;28;20231;-75
2023/06/25 13:26:07;;;;;;;1.38;0.70;;;22.60;56.60;;;;;;6266501;28;20048;-75
2023/06/25 13:29:08;;;;;;;1.30;0.70;;;22.50;56.40;;;;;;6264332;28;20108;-75
2023/06/25 13:32:09;;;;;;;0.82;0.80;;;22.50;56.50;;;;;;6251965;28;20104;-75
2023/06/25 13:35:09;;;;;;;0.95;0.85;;;22.60;56.50;;;;;;6269234;28;20041;-75
2023/06/25 13:38:10;;;;;;;1.10;1.00;;;22.60;56.50;;;;;;6251461;28;20285;-75
2023/06/25 13:41:10;;;;;;;0.90;0.90;;;22.60;57.00;;;;;;6268761;28;20419;-75
2023/06/25 13:44:11;;;;;;;0.65;0.63;;;22.60;56.50;;;;;;6268963;28;20029;-74
2023/06/25 13:47:12;;;;;;;0.60;0.60;;;22.50;56.50;;;;;;6269305;28;20029;-75
2023/06/25 13:50:13;;;;;;;1.20;1.02;;;22.60;56.50;;;;;;6265761;28;20032;-75
2023/06/25 13:53:13;;;;;;;0.82;0.70;;;22.60;56.50;;;;;;6268674;28;20399;-74
2023/06/25 13:56:14;;;;;;;1.05;0.88;;;22.60;56.50;;;;;;6268960;28;20039;-74
2023/06/25 13:59:15;;;;;;;0.60;0.60;;;22.60;56.50;;;;;;6267864;28;20028;-75
2023/06/25 14:02:15;;;;;;;0.70;0.70;;;22.60;56.50;;;;;;6269479;28;20029;-74
2023/06/25 14:05:16;;;;;;;0.80;0.70;;;22.60;56.50;;;;;;6268822;28;20017;-74
2023/06/25 14:08:17;;;;;;;1.45;1.10;;;22.60;56.50;;;;;;6269298;28;20437;-75
2023/06/25 14:11:18;;;;;;;0.50;0.50;;;22.60;56.50;;;;;;6268801;28;20078;-75
2023/06/25 14:14:19;;;;;;;0.70;0.70;;;22.60;56.50;;;;;;6268421;28;20070;-75
2023/06/25 14:17:19;;;;;;;0.60;0.60;;;22.60;56.50;;;;;;6261879;28;20360;-75
2023/06/25 14:20:20;;;;;;;0.70;0.70;;;22.60;56.50;;;;;;6267848;28;20479;-74
2023/06/25 14:23:21;;;;;;;1.27;1.08;;;22.60;56.50;;;;;;6260515;28;20021;-75
2023/06/25 14:26:22;;;;;;;0.60;0.60;;;22.60;56.60;;;;;;6258248;28;20542;-75
2023/06/25 14:29:23;;;;;;;0.90;0.73;;;22.60;56.50;;;;;;6268480;28;20147;-75
2023/06/25 14:32:24;;;;;;;0.77;0.70;;;22.60;56.50;;;;;;6267002;28;20155;-75
2023/06/25 14:35:25;;;;;;;0.93;0.80;;;22.60;56.50;;;;;;6264964;28;20029;-75
2023/06/25 14:38:27;;;;;;;1.85;0.82;;;22.60;56.50;;;;;;6268077;28;20028;-75
2023/06/25 14:41:29;;;;;;;0.60;0.60;;;22.60;56.50;;;;;;6267714;28;20100;-75
2023/06/25 14:44:29;;;;;;;0.60;0.60;;;22.60;56.60;;;;;;6268244;28;20464;-74
2023/06/25 14:47:31;;;;;;;1.02;0.90;;;22.60;56.50;;;;;;6268007;28;20021;-75
2023/06/25 14:50:31;;;;;;;1.30;0.77;;;22.50;56.50;;;;;;6266710;28;20052;-74
2023/06/25 14:53:34;;;;;;;1.10;1.00;;;22.60;56.60;;;;;;6262496;28;20044;-75
2023/06/25 14:56:34;;;;;;;0.55;0.55;;;22.60;56.50;;;;;;6264667;28;20059;-75
2023/06/25 14:59:35;;;;;;;0.73;0.60;;;22.50;56.50;;;;;;6266998;28;20052;-74
2023/06/25 15:02:36;;;;;;;3.00;0.60;;;22.60;56.60;;;;;;6267345;28;20391;-74
2023/06/25 15:05:36;;;;;;;0.80;0.60;;;22.60;56.60;;;;;;6267648;28;20021;-74
2023/06/25 15:08:37;;;;;;;0.80;0.75;;;22.60;56.60;;;;;;6266763;28;20086;-74
2023/06/25 15:11:37;;;;;;;1.05;0.70;;;22.60;56.80;;;;;;6267871;28;20037;-72
2023/06/25 15:14:38;;;;;;;0.70;0.60;;;22.60;56.90;;;;;;6267281;28;20039;-75
2023/06/25 15:17:38;;;;;;;0.85;0.60;;;22.60;56.80;;;;;;6267049;28;20028;-74
2023/06/25 15:20:39;;;;;;;1.58;0.60;;;22.60;56.80;;;;;;6266806;28;20484;-75
2023/06/25 15:23:40;;;;;;;0.82;0.60;;;22.60;56.80;;;;;;6256395;28;20057;-74
2023/06/25 15:26:40;;;;;;;5.25;0.70;;;22.60;56.90;;;;;;6251579;28;20029;-75
2023/06/25 15:29:41;;;;;;;0.63;0.60;;;22.60;56.80;;;;;;6266924;28;20055;-75
2023/06/25 15:32:43;;;;;;;0.63;0.60;;;22.50;56.70;;;;;;6266215;28;20025;-75
2023/06/25 15:35:43;;;;;;;1.48;0.55;;;22.60;56.90;;;;;;6266560;28;20036;-72
2023/06/25 15:38:44;;;;;;;0.90;0.65;;;22.50;56.80;;;;;;6266739;28;20409;-72
2023/06/25 15:41:44;;;;;;;0.73;0.60;;;22.50;56.80;;;;;;6266645;28;20568;-72
2023/06/25 15:44:45;;;;;;;0.80;0.80;;;22.50;56.90;;;;;;6266566;28;20033;-73
2023/06/25 15:47:46;;;;;;;0.98;0.60;;;22.50;56.90;;;;;;6256817;28;20515;-72